To NAV CANADA Home Page Login to a new session Search on AWWS site Disclaimer Vers la page française équivalente Tips FAQ What's new on the site To the Forecasts and Observations / NOTAM section To "File a Flight Plan" website Publications and other links Update of the User's profile FIC Telephone Numbers My Weather Data Folder Route Weather Data Regional Weather Data Local Weather Data To the Forecasts and Observations / NOTAM section
Request Generated 04/24/2019 at 16:02:22 UTC . Weather information available at that time is displayed.

METAR/TAF

KUGAARUK/NU    

METAR CYBB 241500Z 05005KT 15SM FEW150 M25/M28 A2997 RMK AC1 SLP153=
METAR CYBB 241400Z 03004KT 15SM FEW150 M26/M29 A2998 RMK AC1 AC TR SLP156=
METAR CYBB 241300Z 06004KT 15SM FEW150 M27/M30 A2999 RMK AC1 AC TR SLP159=

TAF CYBB 241338Z 2414/2423 VRB03KT P6SM FEW150 TEMPO 2414/2423 5SM IC
BR
RMK NXT FCST BY 241900Z=
Your time UTC time
Weather data provided by Environment Canada and NAV CANADA